Time;durP1;ratioP1;P1;durP2;ratioP2;P2;SDS_P1;SDS_P2;PMS_P1;PMS_P2;Temp;Humidity;BMP_temperature;BMP_pressure;BME280_temperature;BME280_humidity;BME280_pressure;Samples;Min_cycle;Max_cycle;Signal;HPM_P1;HPM_P2
2020/12/19 00:01:29;;;;;;;6.53;4.60;;;8.20;99.90;;;;;;5085936;28;20811;-77
2020/12/19 00:03:55;;;;;;;7.20;5.13;;;8.20;99.90;;;;;;5086719;28;20198;-79
2020/12/19 00:06:21;;;;;;;6.67;4.90;;;8.20;99.90;;;;;;5078415;28;20579;-77
2020/12/19 00:08:49;;;;;;;8.23;4.80;;;8.20;99.90;;;;;;5092409;28;20549;-77
2020/12/19 00:11:15;;;;;;;6.87;4.70;;;8.20;99.90;;;;;;5074754;28;20289;-77
2020/12/19 00:13:42;;;;;;;7.50;5.20;;;8.10;99.90;;;;;;5088926;28;20670;-78
2020/12/19 00:16:08;;;;;;;6.70;4.77;;;8.10;99.90;;;;;;5089917;28;20199;-78
2020/12/19 00:18:35;;;;;;;7.17;5.10;;;8.10;99.90;;;;;;5086750;28;20288;-78
2020/12/19 00:21:01;;;;;;;7.53;5.13;;;8.00;99.90;;;;;;5089403;28;20340;-80
2020/12/19 00:23:27;;;;;;;8.10;4.90;;;8.00;99.90;;;;;;5085993;28;20200;-78
2020/12/19 00:25:55;;;;;;;8.03;4.93;;;8.00;99.90;;;;;;5086657;28;20306;-79
2020/12/19 00:28:21;;;;;;;6.83;4.73;;;7.90;99.90;;;;;;5091305;28;20649;-79
2020/12/19 00:30:47;;;;;;;6.77;4.83;;;7.90;99.90;;;;;;5089913;28;20736;-79
2020/12/19 00:33:14;;;;;;;7.57;5.00;;;7.90;99.90;;;;;;5086292;28;20228;-79
2020/12/19 00:35:40;;;;;;;9.70;4.97;;;7.80;99.90;;;;;;5089309;28;20199;-80
2020/12/19 00:38:06;;;;;;;9.37;5.67;;;7.90;99.90;;;;;;5086734;28;20196;-78
2020/12/19 00:40:33;;;;;;;8.17;5.00;;;7.80;99.90;;;;;;5092789;28;20286;-77
2020/12/19 00:43:00;;;;;;;8.63;4.90;;;7.80;99.90;;;;;;5092536;28;20288;-76
2020/12/19 00:45:26;;;;;;;7.17;5.13;;;7.80;99.90;;;;;;5090304;28;20250;-79
2020/12/19 00:47:53;;;;;;;8.97;5.23;;;7.80;99.90;;;;;;5090197;28;20196;-78
2020/12/19 00:50:19;;;;;;;9.37;5.77;;;7.80;99.90;;;;;;5088570;28;20289;-77
2020/12/19 00:52:45;;;;;;;9.87;5.17;;;7.80;99.90;;;;;;5090210;28;20510;-79
2020/12/19 00:55:11;;;;;;;8.93;4.70;;;7.80;99.90;;;;;;5088088;28;20662;-79
2020/12/19 00:57:38;;;;;;;6.13;4.13;;;7.90;99.90;;;;;;5092434;28;20288;-78
2020/12/19 01:00:08;;;;;;;6.93;4.60;;;7.90;99.90;;;;;;5085872;28;20569;-79
2020/12/19 01:02:36;;;;;;;6.93;4.13;;;8.00;99.90;;;;;;5086400;28;20623;-78
2020/12/19 01:05:02;;;;;;;8.27;4.43;;;7.90;99.90;;;;;;5090023;28;20203;-79
2020/12/19 01:07:30;;;;;;;7.60;5.23;;;7.90;99.90;;;;;;5088421;28;20195;-79
2020/12/19 01:09:57;;;;;;;9.03;5.00;;;8.00;99.90;;;;;;5087996;28;20284;-79
2020/12/19 01:12:23;;;;;;;6.13;4.57;;;7.90;99.90;;;;;;5092828;28;20199;-78
2020/12/19 01:14:50;;;;;;;6.87;4.23;;;7.90;99.90;;;;;;5088647;28;20214;-79
2020/12/19 01:17:17;;;;;;;7.40;4.80;;;7.90;99.90;;;;;;5087915;28;20194;-79
2020/12/19 01:19:44;;;;;;;7.00;4.53;;;7.70;99.90;;;;;;5091394;28;20288;-80
2020/12/19 01:22:10;;;;;;;6.83;4.43;;;7.70;99.90;;;;;;5088039;28;20354;-79
2020/12/19 01:24:36;;;;;;;7.50;4.70;;;7.80;99.90;;;;;;5073670;28;20550;-78
2020/12/19 01:27:03;;;;;;;8.10;4.67;;;7.80;99.90;;;;;;5087747;28;20203;-79
2020/12/19 01:29:29;;;;;;;6.50;4.57;;;7.90;99.90;;;;;;5089395;28;20670;-77
2020/12/19 01:31:55;;;;;;;6.53;4.33;;;8.00;99.90;;;;;;5090328;28;20575;-79
2020/12/19 01:34:23;;;;;;;6.47;4.13;;;7.90;99.90;;;;;;5072608;28;20300;-80
2020/12/19 01:36:49;;;;;;;7.17;4.77;;;7.90;99.90;;;;;;5073089;28;20291;-79
2020/12/19 01:39:15;;;;;;;7.27;4.70;;;8.00;99.90;;;;;;5091936;28;20308;-79
2020/12/19 01:41:42;;;;;;;6.87;4.50;;;8.00;99.90;;;;;;5079324;28;20639;-79
2020/12/19 01:44:08;;;;;;;6.93;4.73;;;7.90;99.90;;;;;;5092292;28;20577;-78
2020/12/19 01:46:47;;;;;;;7.10;4.87;;;7.90;99.90;;;;;;5087217;28;20231;-79
2020/12/19 01:49:14;;;;;;;8.37;4.90;;;8.00;99.90;;;;;;5071972;28;20242;-79
2020/12/19 01:51:41;;;;;;;6.70;4.70;;;7.90;99.90;;;;;;5071968;28;20260;-79
2020/12/19 01:54:08;;;;;;;8.47;5.53;;;7.80;99.90;;;;;;5072719;28;20649;-80
2020/12/19 01:56:50;;;;;;;7.37;4.70;;;7.80;99.90;;;;;;5079447;28;20366;-79
2020/12/19 01:59:17;;;;;;;9.57;4.93;;;7.80;99.90;;;;;;5091471;28;20213;-77
2020/12/19 02:01:44;;;;;;;8.10;5.13;;;7.80;99.90;;;;;;5073097;28;20432;-76
2020/12/19 02:04:11;;;;;;;7.87;4.57;;;7.80;99.90;;;;;;5092260;28;20200;-81
2020/12/19 02:06:38;;;;;;;8.53;5.07;;;7.90;99.90;;;;;;5092324;28;20525;-77
2020/12/19 02:09:05;;;;;;;8.77;4.50;;;8.00;99.90;;;;;;5074415;28;20235;-81
2020/12/19 02:11:32;;;;;;;7.00;4.40;;;8.00;99.90;;;;;;5079968;28;20205;-81
2020/12/19 02:13:58;;;;;;;6.00;4.00;;;8.00;99.90;;;;;;5072050;28;20202;-79
2020/12/19 02:16:25;;;;;;;7.17;4.43;;;7.90;99.90;;;;;;5072057;28;20199;-79
2020/12/19 02:18:51;;;;;;;6.70;4.13;;;7.90;99.90;;;;;;5083822;28;20200;-79
2020/12/19 02:21:19;;;;;;;7.60;4.23;;;7.90;99.90;;;;;;5087456;28;20227;-77
2020/12/19 02:23:46;;;;;;;8.60;4.73;;;8.00;99.90;;;;;;5074158;28;20251;-79
2020/12/19 02:26:12;;;;;;;6.10;4.10;;;8.00;99.90;;;;;;5086156;28;20692;-78
2020/12/19 02:28:39;;;;;;;7.53;3.77;;;8.00;99.90;;;;;;5092229;28;20281;-78
2020/12/19 02:31:05;;;;;;;5.50;3.57;;;8.00;99.90;;;;;;5090171;28;20200;-78
2020/12/19 02:33:32;;;;;;;6.60;3.70;;;7.90;99.90;;;;;;5091905;28;20567;-80
2020/12/19 02:35:58;;;;;;;5.43;3.83;;;8.00;99.90;;;;;;5090677;28;20237;-80
2020/12/19 02:38:24;;;;;;;5.90;3.50;;;7.90;99.90;;;;;;5090275;28;20638;-78
2020/12/19 02:40:52;;;;;;;9.13;4.17;;;8.00;99.90;;;;;;5092679;28;20275;-80
2020/12/19 02:43:18;;;;;;;6.00;3.73;;;7.90;99.90;;;;;;5089235;28;20283;-79
2020/12/19 02:45:44;;;;;;;6.60;3.80;;;8.00;99.90;;;;;;5077382;28;20298;-81
2020/12/19 02:48:11;;;;;;;5.30;4.00;;;8.00;99.90;;;;;;5073429;28;20200;-80
2020/12/19 02:50:37;;;;;;;7.13;3.77;;;8.10;99.90;;;;;;5086726;28;20215;-80
2020/12/19 02:53:03;;;;;;;5.10;3.63;;;8.00;99.90;;;;;;5083004;28;20325;-80
2020/12/19 02:55:29;;;;;;;9.70;4.00;;;8.00;99.90;;;;;;5090240;28;20197;-78
2020/12/19 02:57:57;;;;;;;5.37;3.70;;;8.00;99.90;;;;;;5077327;28;20193;-79
2020/12/19 03:00:23;;;;;;;6.10;3.57;;;8.00;99.90;;;;;;5088640;28;20199;-78
2020/12/19 03:02:49;;;;;;;4.67;3.30;;;8.00;99.90;;;;;;5089857;28;20227;-78
2020/12/19 03:05:16;;;;;;;5.57;3.47;;;8.10;99.90;;;;;;5071860;28;20567;-79
2020/12/19 03:07:42;;;;;;;4.90;3.47;;;8.10;99.90;;;;;;5082149;28;20755;-79
2020/12/19 03:10:08;;;;;;;5.13;3.43;;;8.20;99.90;;;;;;5071652;28;20318;-78
2020/12/19 03:12:35;;;;;;;4.77;3.43;;;8.20;99.90;;;;;;5072872;28;20201;-79
2020/12/19 03:15:02;;;;;;;4.60;3.30;;;8.20;99.90;;;;;;5074968;28;20250;-78
2020/12/19 03:17:28;;;;;;;5.60;3.40;;;8.30;99.90;;;;;;5076114;28;20258;-78
2020/12/19 03:19:55;;;;;;;4.43;3.03;;;8.30;99.90;;;;;;5085006;28;20623;-78
2020/12/19 03:22:24;;;;;;;5.13;3.43;;;8.30;99.90;;;;;;5093657;28;20311;-78
2020/12/19 03:24:50;;;;;;;6.80;3.60;;;8.30;99.90;;;;;;5095433;28;20273;-79
2020/12/19 03:27:17;;;;;;;5.47;3.40;;;8.30;99.90;;;;;;5093894;28;20196;-78
2020/12/19 03:29:43;;;;;;;5.17;3.27;;;8.30;99.90;;;;;;5075753;28;20286;-81
2020/12/19 03:32:10;;;;;;;4.93;3.37;;;8.30;99.90;;;;;;5084046;28;20291;-78
2020/12/19 03:34:36;;;;;;;7.07;3.43;;;8.30;99.90;;;;;;5088702;28;20280;-78
2020/12/19 03:37:03;;;;;;;5.77;3.43;;;8.30;99.90;;;;;;5089002;28;20608;-79
2020/12/19 03:39:29;;;;;;;5.83;3.57;;;8.30;99.90;;;;;;5095184;28;20213;-78
2020/12/19 03:41:56;;;;;;;6.87;4.50;;;8.30;99.90;;;;;;5081578;28;20680;-78
2020/12/19 03:44:22;;;;;;;6.33;3.93;;;8.30;99.90;;;;;;5074623;28;20223;-79
2020/12/19 03:46:48;;;;;;;6.03;3.67;;;8.20;99.90;;;;;;5091541;28;20223;-79
2020/12/19 03:49:15;;;;;;;7.43;3.87;;;8.20;99.90;;;;;;5082241;28;20201;-78
2020/12/19 03:51:42;;;;;;;6.87;3.87;;;8.10;99.90;;;;;;5091502;28;20287;-78
2020/12/19 03:54:08;;;;;;;7.73;4.10;;;8.20;99.90;;;;;;5074396;28;20242;-79
2020/12/19 03:56:35;;;;;;;6.10;4.20;;;8.20;99.90;;;;;;5089366;28;20207;-78
2020/12/19 03:59:01;;;;;;;6.50;4.47;;;8.10;99.90;;;;;;5075611;28;20230;-78
2020/12/19 04:01:27;;;;;;;6.60;4.43;;;8.20;99.90;;;;;;5087230;28;20297;-78
2020/12/19 04:03:54;;;;;;;8.67;5.10;;;8.10;99.90;;;;;;5076792;28;20224;-78
2020/12/19 04:06:21;;;;;;;7.37;4.77;;;8.20;99.90;;;;;;5083523;28;20228;-78
2020/12/19 04:08:47;;;;;;;9.13;4.47;;;8.20;99.90;;;;;;5090633;28;20252;-78
2020/12/19 04:11:14;;;;;;;7.57;5.20;;;8.20;99.90;;;;;;5088894;28;20253;-78
2020/12/19 04:13:40;;;;;;;7.30;5.00;;;8.20;99.90;;;;;;5089345;28;20653;-78
2020/12/19 04:16:06;;;;;;;6.67;4.90;;;8.30;99.90;;;;;;5075612;28;20310;-78
2020/12/19 04:18:33;;;;;;;8.17;5.33;;;8.30;99.90;;;;;;5077684;28;20295;-79
2020/12/19 04:20:59;;;;;;;10.43;5.33;;;8.30;99.90;;;;;;5074422;28;20282;-78
2020/12/19 04:23:26;;;;;;;9.13;5.77;;;8.40;99.90;;;;;;5093136;28;20197;-80
2020/12/19 04:25:52;;;;;;;9.47;5.80;;;8.40;99.90;;;;;;5075114;28;20201;-80
2020/12/19 04:28:19;;;;;;;9.60;6.30;;;8.40;99.90;;;;;;5074079;28;20208;-79
2020/12/19 04:30:45;;;;;;;8.37;5.63;;;8.40;99.90;;;;;;5089592;28;20200;-80
2020/12/19 04:33:11;;;;;;;12.27;6.40;;;8.30;99.90;;;;;;5092464;28;20277;-79
2020/12/19 04:35:38;;;;;;;10.60;6.47;;;8.30;99.90;;;;;;5093977;28;20674;-79
2020/12/19 04:38:04;;;;;;;11.63;6.70;;;8.30;99.90;;;;;;5081664;28;20203;-79
2020/12/19 04:40:31;;;;;;;10.77;6.63;;;8.40;99.90;;;;;;5080286;28;20205;-78
2020/12/19 04:42:58;;;;;;;10.43;7.03;;;8.50;99.90;;;;;;5074896;28;20239;-78
2020/12/19 04:45:24;;;;;;;9.47;6.13;;;8.50;99.90;;;;;;5085997;28;20203;-78
2020/12/19 04:47:51;;;;;;;11.70;7.60;;;8.40;99.90;;;;;;5087439;28;20203;-78
2020/12/19 04:50:18;;;;;;;12.20;7.20;;;8.40;99.90;;;;;;5092216;28;20289;-78
2020/12/19 04:52:45;;;;;;;11.90;6.97;;;8.40;99.90;;;;;;5089216;28;20204;-78
2020/12/19 04:55:11;;;;;;;10.83;7.10;;;8.40;99.90;;;;;;5091653;28;20651;-77
2020/12/19 04:57:39;;;;;;;12.17;7.33;;;8.40;99.90;;;;;;5091901;28;20209;-78
2020/12/19 05:00:06;;;;;;;11.50;6.90;;;8.50;99.90;;;;;;5089564;28;20204;-78
2020/12/19 05:02:32;;;;;;;11.77;6.93;;;8.50;99.90;;;;;;5086813;28;20225;-77
2020/12/19 05:05:06;;;;;;;11.83;7.60;;;8.60;99.90;;;;;;5083916;28;20307;-78
2020/12/19 05:07:32;;;;;;;13.27;7.80;;;8.60;99.90;;;;;;5092438;28;20215;-78
2020/12/19 05:09:59;;;;;;;11.97;7.63;;;8.60;99.90;;;;;;5076286;28;20557;-78
2020/12/19 05:12:26;;;;;;;13.20;7.40;;;8.60;99.90;;;;;;5085716;28;20213;-78
2020/12/19 05:14:53;;;;;;;11.97;7.80;;;8.60;99.90;;;;;;5092326;28;20195;-78
2020/12/19 05:17:20;;;;;;;12.73;7.57;;;8.60;99.90;;;;;;5080850;28;20197;-79
2020/12/19 05:19:51;;;;;;;14.18;7.78;;;8.60;99.90;;;;;;5086841;28;20445;-78
2020/12/19 05:22:18;;;;;;;13.00;7.97;;;8.60;99.90;;;;;;5092711;28;20576;-80
2020/12/19 05:24:45;;;;;;;14.07;7.50;;;8.70;99.90;;;;;;5091735;28;20687;-78
2020/12/19 05:27:12;;;;;;;12.33;7.90;;;8.70;99.90;;;;;;5072983;28;20201;-77
2020/12/19 05:29:38;;;;;;;11.77;7.37;;;8.70;99.90;;;;;;5083937;28;20225;-77
2020/12/19 05:32:05;;;;;;;11.57;7.63;;;8.70;99.90;;;;;;5082605;28;20304;-78
2020/12/19 05:34:32;;;;;;;12.23;7.53;;;8.70;99.90;;;;;;5092253;28;20291;-78
2020/12/19 05:36:59;;;;;;;13.00;7.97;;;8.80;99.90;;;;;;5091905;28;20201;-78
2020/12/19 05:39:25;;;;;;;14.03;7.60;;;8.80;99.90;;;;;;5084548;28;20205;-78
2020/12/19 05:41:52;;;;;;;12.33;7.10;;;8.90;99.90;;;;;;5079887;28;20638;-79
2020/12/19 05:44:23;;;;;;;12.43;7.67;;;9.00;99.90;;;;;;5085579;28;20227;-79
2020/12/19 05:46:50;;;;;;;12.90;7.87;;;9.00;99.90;;;;;;5078022;28;20203;-79
2020/12/19 05:49:17;;;;;;;12.03;7.60;;;9.00;99.90;;;;;;5086554;28;20211;-78
2020/12/19 05:51:45;;;;;;;10.60;7.20;;;9.00;99.90;;;;;;5089218;28;20244;-78
2020/12/19 05:54:12;;;;;;;11.13;7.17;;;9.00;99.90;;;;;;5091703;28;20224;-78
2020/12/19 05:56:40;;;;;;;12.30;7.73;;;8.90;99.90;;;;;;5091437;28;20205;-79
2020/12/19 05:59:11;;;;;;;12.77;6.87;;;8.90;99.90;;;;;;5091825;28;20196;-79
2020/12/19 06:01:40;;;;;;;11.43;7.27;;;8.90;99.90;;;;;;5077993;28;20224;-79
2020/12/19 06:04:08;;;;;;;11.33;7.37;;;8.90;99.90;;;;;;5082294;28;20235;-78
2020/12/19 06:06:37;;;;;;;14.97;7.17;;;8.90;99.90;;;;;;5079428;28;20270;-79
2020/12/19 06:09:04;;;;;;;9.70;6.23;;;8.90;99.90;;;;;;5091094;28;20295;-78
2020/12/19 06:11:38;;;;;;;10.37;6.30;;;8.90;99.90;;;;;;5083547;28;20205;-79
2020/12/19 06:14:09;;;;;;;12.00;7.17;;;9.00;99.90;;;;;;5089770;28;20561;-79
2020/12/19 06:16:40;;;;;;;11.30;6.60;;;9.10;99.90;;;;;;5090947;28;20197;-79
2020/12/19 06:19:20;;;;;;;12.03;7.20;;;9.10;99.90;;;;;;5091299;28;20251;-80
2020/12/19 06:21:52;;;;;;;10.80;6.63;;;9.10;99.90;;;;;;5079763;28;20252;-78
2020/12/19 06:24:41;;;;;;;8.67;6.57;;;9.10;99.90;;;;;;5091019;28;20574;-78
2020/12/19 06:27:41;;;;;;;13.40;6.87;;;9.10;99.90;;;;;;5081911;28;20685;-80
2020/12/19 06:30:28;;;;;;;9.90;6.03;;;9.10;99.90;;;;;;5083918;28;20201;-79
2020/12/19 06:33:10;;;;;;;10.30;6.00;;;9.10;99.90;;;;;;5089262;28;20693;-79
2020/12/19 06:35:37;;;;;;;10.90;5.97;;;9.10;99.90;;;;;;5091919;28;20576;-78
2020/12/19 06:38:05;;;;;;;9.23;5.50;;;9.10;99.90;;;;;;5083778;28;20292;-79
2020/12/19 06:40:38;;;;;;;10.13;5.57;;;9.20;99.90;;;;;;5092251;28;20243;-78
2020/12/19 06:43:12;;;;;;;9.67;5.63;;;9.10;99.90;;;;;;5081827;28;20241;-80
2020/12/19 06:45:39;;;;;;;9.20;6.33;;;9.20;99.90;;;;;;5083560;28;20238;-78
2020/12/19 06:48:32;;;;;;;9.10;5.80;;;9.20;99.90;;;;;;5093814;28;20296;-80
2020/12/19 06:51:00;;;;;;;9.90;6.00;;;9.10;99.90;;;;;;5095688;28;20576;-79
2020/12/19 06:53:29;;;;;;;11.07;5.77;;;9.20;99.90;;;;;;5086710;28;20208;-79
2020/12/19 06:55:56;;;;;;;10.17;6.10;;;9.10;99.90;;;;;;5082197;28;20227;-80
2020/12/19 06:58:40;;;;;;;10.47;6.23;;;9.10;99.90;;;;;;5085927;28;20199;-79
2020/12/19 07:01:26;;;;;;;11.33;6.03;;;9.10;99.90;;;;;;5093841;28;20246;-79
2020/12/19 07:03:52;;;;;;;10.37;5.43;;;9.10;99.90;;;;;;5084612;28;20210;-76
2020/12/19 07:06:19;;;;;;;8.57;5.87;;;9.10;99.90;;;;;;5092980;28;20355;-80
2020/12/19 07:08:46;;;;;;;9.57;6.03;;;9.20;99.90;;;;;;5087679;28;20564;-78
2020/12/19 07:11:33;;;;;;;13.63;6.73;;;9.10;99.90;;;;;;5092131;28;20201;-79
2020/12/19 07:14:01;;;;;;;12.40;5.87;;;9.10;99.90;;;;;;5090799;28;20203;-80
2020/12/19 07:16:47;;;;;;;10.00;5.47;;;9.00;99.90;;;;;;5085370;28;20304;-79
2020/12/19 07:19:19;;;;;;;9.60;5.53;;;9.00;99.90;;;;;;5088055;28;20203;-79
2020/12/19 07:21:46;;;;;;;12.70;5.83;;;9.10;99.90;;;;;;5082234;28;20222;-79
2020/12/19 07:24:13;;;;;;;9.00;5.80;;;9.10;99.90;;;;;;5091324;28;20675;-79
2020/12/19 07:26:40;;;;;;;11.93;5.23;;;9.10;99.90;;;;;;5083280;28;20198;-78
2020/12/19 07:29:14;;;;;;;8.80;5.30;;;9.10;99.90;;;;;;5087405;28;20655;-79
2020/12/19 07:31:44;;;;;;;9.47;5.03;;;9.10;99.90;;;;;;5087450;28;20221;-78
2020/12/19 07:34:11;;;;;;;8.37;5.17;;;9.10;99.90;;;;;;5087130;28;20723;-79
2020/12/19 07:36:39;;;;;;;10.83;5.50;;;9.00;99.90;;;;;;5088608;28;20198;-80
2020/12/19 07:39:06;;;;;;;6.87;4.77;;;9.10;99.90;;;;;;5081324;28;20290;-79
2020/12/19 07:41:35;;;;;;;8.30;5.30;;;9.10;99.90;;;;;;5086491;28;20256;-80
2020/12/19 07:44:22;;;;;;;9.43;4.70;;;9.10;99.90;;;;;;5089461;28;20219;-77
2020/12/19 07:46:50;;;;;;;9.63;4.67;;;9.10;99.90;;;;;;5076153;28;20199;-80
2020/12/19 07:49:37;;;;;;;5.30;3.87;;;9.10;99.90;;;;;;5090569;28;20658;-80
2020/12/19 07:52:09;;;;;;;8.60;4.23;;;9.10;99.90;;;;;;5077023;28;20240;-80
2020/12/19 07:54:36;;;;;;;6.83;4.87;;;9.20;99.90;;;;;;5083757;28;20293;-79
2020/12/19 07:57:04;;;;;;;11.70;4.80;;;9.30;99.90;;;;;;5088277;28;20198;-81
2020/12/19 07:59:30;;;;;;;8.57;4.30;;;9.30;99.90;;;;;;5091292;28;20577;-80
2020/12/19 08:02:00;;;;;;;6.43;4.50;;;9.40;99.90;;;;;;5090927;28;20252;-81
2020/12/19 08:04:26;;;;;;;8.80;4.50;;;9.40;99.90;;;;;;5077161;28;20203;-79
2020/12/19 08:06:53;;;;;;;7.70;4.47;;;9.40;99.90;;;;;;5075708;28;20209;-79
2020/12/19 08:09:20;;;;;;;6.10;3.87;;;9.40;99.90;;;;;;5085428;28;20218;-80
2020/12/19 08:11:47;;;;;;;15.87;4.67;;;9.40;99.90;;;;;;5078534;28;20213;-80
2020/12/19 08:14:16;;;;;;;7.73;4.10;;;9.50;99.90;;;;;;5083041;28;20206;-80
2020/12/19 08:16:43;;;;;;;6.60;4.00;;;9.70;99.90;;;;;;5082784;28;20203;-79
2020/12/19 08:19:11;;;;;;;6.30;3.80;;;9.70;99.90;;;;;;5077625;28;20198;-80
2020/12/19 08:21:39;;;;;;;6.90;3.23;;;9.80;99.90;;;;;;5073406;28;20291;-80
2020/12/19 08:24:06;;;;;;;7.60;3.80;;;9.90;99.90;;;;;;5090937;28;20193;-82
2020/12/19 08:26:32;;;;;;;6.45;3.90;;;10.00;99.90;;;;;;5092685;28;20531;-80
2020/12/19 08:29:03;;;;;;;7.37;3.60;;;10.10;99.90;;;;;;5081359;28;20204;-82
2020/12/19 08:31:34;;;;;;;5.07;3.60;;;10.20;99.90;;;;;;5074905;28;20234;-83
2020/12/19 08:34:03;;;;;;;4.93;3.00;;;10.20;99.90;;;;;;5080317;28;20202;-80
2020/12/19 08:36:30;;;;;;;5.17;3.47;;;10.30;99.90;;;;;;5073246;28;20602;-79
2020/12/19 08:39:11;;;;;;;6.57;3.40;;;10.50;99.90;;;;;;5077518;28;20312;-79
2020/12/19 08:41:38;;;;;;;6.17;3.10;;;10.50;99.90;;;;;;5088907;28;20201;-80
2020/12/19 08:44:04;;;;;;;4.70;3.30;;;10.50;99.90;;;;;;5077376;28;20289;-79
2020/12/19 08:46:31;;;;;;;5.93;3.57;;;10.60;99.90;;;;;;5082663;28;20265;-81
2020/12/19 08:49:00;;;;;;;4.60;3.20;;;10.70;99.90;;;;;;5082322;28;20285;-78
2020/12/19 08:51:27;;;;;;;6.60;2.90;;;10.70;99.90;;;;;;5083192;28;20201;-78
2020/12/19 08:53:54;;;;;;;5.57;2.90;;;10.70;99.90;;;;;;5080912;28;20187;-78
2020/12/19 08:56:25;;;;;;;6.73;3.30;;;10.80;99.90;;;;;;5086914;28;20193;-78
2020/12/19 08:58:55;;;;;;;5.37;3.00;;;10.80;99.90;;;;;;5080480;28;20692;-79
2020/12/19 09:01:22;;;;;;;4.40;2.57;;;10.70;99.90;;;;;;5090774;28;20197;-81
2020/12/19 09:03:50;;;;;;;2.97;2.30;;;10.80;99.90;;;;;;5093053;28;20269;-78
2020/12/19 09:06:17;;;;;;;6.20;2.67;;;10.80;99.90;;;;;;5080831;28;20195;-79
2020/12/19 09:08:45;;;;;;;5.73;3.13;;;10.80;99.90;;;;;;5089367;28;20279;-79
2020/12/19 09:11:23;;;;;;;5.47;3.00;;;10.80;99.90;;;;;;5092397;28;20208;-78
2020/12/19 09:13:49;;;;;;;7.67;3.10;;;10.90;99.90;;;;;;5087419;28;20204;-77
2020/12/19 09:16:16;;;;;;;5.00;2.57;;;10.90;99.90;;;;;;5082598;28;20284;-78
2020/12/19 09:18:43;;;;;;;4.50;2.73;;;11.00;99.90;;;;;;5083778;28;20205;-78
2020/12/19 09:21:11;;;;;;;4.50;2.63;;;11.10;99.90;;;;;;5072425;28;20237;-79
2020/12/19 09:23:41;;;;;;;5.93;2.80;;;11.10;99.90;;;;;;5089385;28;20557;-81
2020/12/19 09:26:09;;;;;;;5.93;2.50;;;11.20;99.90;;;;;;5073670;28;20598;-80
2020/12/19 09:28:36;;;;;;;4.33;2.43;;;11.20;99.90;;;;;;5073340;28;20609;-79
2020/12/19 09:31:02;;;;;;;3.07;2.20;;;11.30;99.90;;;;;;5085636;28;20250;-79
2020/12/19 09:33:29;;;;;;;3.97;2.40;;;11.20;99.90;;;;;;5080847;28;20202;-80
2020/12/19 09:35:55;;;;;;;5.10;2.60;;;11.30;99.90;;;;;;5091160;28;20197;-80
2020/12/19 09:38:23;;;;;;;5.87;2.23;;;11.50;99.90;;;;;;5077949;28;20800;-78
2020/12/19 09:40:49;;;;;;;5.00;2.33;;;11.50;99.90;;;;;;5086615;28;20588;-81
2020/12/19 09:43:16;;;;;;;4.23;2.63;;;11.60;99.90;;;;;;5088875;28;20222;-80
2020/12/19 09:45:42;;;;;;;3.93;2.63;;;11.70;99.90;;;;;;5079504;28;20624;-80
2020/12/19 09:48:08;;;;;;;3.53;2.37;;;11.70;99.90;;;;;;5084721;28;20304;-80
2020/12/19 09:50:35;;;;;;;4.73;2.30;;;11.80;99.90;;;;;;5073096;28;20294;-78
2020/12/19 09:53:01;;;;;;;4.83;2.33;;;12.00;99.90;;;;;;5076071;28;20202;-79
2020/12/19 09:55:29;;;;;;;8.07;2.43;;;12.10;99.90;;;;;;5073618;28;20226;-79
2020/12/19 09:57:56;;;;;;;4.00;2.40;;;12.20;99.90;;;;;;5085104;28;20633;-79
2020/12/19 10:00:23;;;;;;;6.27;2.33;;;12.20;99.90;;;;;;5081600;28;20195;-79
2020/12/19 10:02:53;;;;;;;3.97;1.80;;;12.40;99.90;;;;;;5079557;28;20217;-80
2020/12/19 10:05:19;;;;;;;6.80;2.33;;;12.40;99.90;;;;;;5090390;28;20191;-79
2020/12/19 10:07:46;;;;;;;2.47;1.60;;;12.30;99.90;;;;;;5079973;28;20284;-80
2020/12/19 10:10:13;;;;;;;4.10;2.20;;;12.20;99.90;;;;;;5078345;28;20290;-78
2020/12/19 10:12:40;;;;;;;3.77;2.13;;;12.20;99.90;;;;;;5079186;28;20198;-79
2020/12/19 10:15:07;;;;;;;5.37;1.90;;;12.20;99.90;;;;;;5074176;28;20194;-79
2020/12/19 10:17:33;;;;;;;4.87;2.13;;;12.10;99.90;;;;;;5077323;28;20214;-80
2020/12/19 10:20:00;;;;;;;3.90;2.10;;;12.20;99.90;;;;;;5075766;28;20320;-78
2020/12/19 10:22:26;;;;;;;4.90;1.90;;;12.20;99.90;;;;;;5081916;28;20250;-78
2020/12/19 10:24:52;;;;;;;3.67;1.83;;;12.30;99.90;;;;;;5084091;28;20200;-80
2020/12/19 10:27:19;;;;;;;2.47;1.90;;;12.30;99.90;;;;;;5089508;28;20203;-80
2020/12/19 10:29:46;;;;;;;2.70;1.97;;;12.50;99.90;;;;;;5086146;28;20199;-79
2020/12/19 10:32:13;;;;;;;3.53;1.70;;;12.60;99.90;;;;;;5090563;28;20204;-79
2020/12/19 10:34:40;;;;;;;4.80;2.10;;;12.80;99.90;;;;;;5087220;28;20191;-78
2020/12/19 10:37:07;;;;;;;3.77;1.93;;;12.90;99.90;;;;;;5081022;28;20215;-79
2020/12/19 10:39:33;;;;;;;4.83;1.70;;;13.00;99.90;;;;;;5075815;28;20743;-79
2020/12/19 10:42:00;;;;;;;3.87;1.93;;;13.10;99.90;;;;;;5087370;28;20227;-80
2020/12/19 10:44:26;;;;;;;4.03;1.93;;;13.10;99.90;;;;;;5088095;28;20266;-78
2020/12/19 10:46:53;;;;;;;3.70;2.03;;;13.10;99.90;;;;;;5082523;28;20219;-80
2020/12/19 10:49:20;;;;;;;2.40;1.70;;;13.10;99.90;;;;;;5082516;28;20675;-79
2020/12/19 10:51:47;;;;;;;5.57;1.97;;;13.20;99.90;;;;;;5079160;28;20198;-78
2020/12/19 10:54:14;;;;;;;4.27;1.70;;;13.20;99.90;;;;;;5077173;28;20217;-79
2020/12/19 10:56:40;;;;;;;6.17;2.03;;;13.20;99.90;;;;;;5075566;28;20278;-78
2020/12/19 10:59:06;;;;;;;3.30;1.70;;;13.10;99.90;;;;;;5076586;28;20202;-80
2020/12/19 11:01:33;;;;;;;4.43;2.07;;;13.20;99.90;;;;;;5081854;28;20195;-79
2020/12/19 11:04:00;;;;;;;4.67;2.00;;;13.10;99.90;;;;;;5093329;28;20592;-78
2020/12/19 11:06:27;;;;;;;3.33;1.70;;;12.90;99.90;;;;;;5076936;28;20249;-78
2020/12/19 11:08:55;;;;;;;4.03;2.10;;;12.70;99.90;;;;;;5089785;28;20225;-78
2020/12/19 11:11:22;;;;;;;3.57;2.00;;;12.40;99.90;;;;;;5080032;28;20199;-81
2020/12/19 11:13:49;;;;;;;3.73;1.97;;;12.20;99.90;;;;;;5075607;28;20293;-80
2020/12/19 11:16:23;;;;;;;2.80;1.53;;;12.00;99.90;;;;;;5076423;28;20286;-79
2020/12/19 11:18:49;;;;;;;4.57;2.30;;;11.80;99.90;;;;;;5082820;28;20241;-79
2020/12/19 11:21:17;;;;;;;4.37;1.90;;;11.80;99.90;;;;;;5093313;28;20259;-79
2020/12/19 11:23:43;;;;;;;3.70;2.10;;;11.90;99.90;;;;;;5095019;28;20313;-77
2020/12/19 11:26:10;;;;;;;3.70;2.13;;;11.90;99.90;;;;;;5090890;28;20281;-78
2020/12/19 11:28:37;;;;;;;4.20;1.80;;;11.80;99.90;;;;;;5090160;28;20199;-80
2020/12/19 11:31:03;;;;;;;3.13;2.00;;;11.70;99.90;;;;;;5087449;28;20203;-79
2020/12/19 11:33:30;;;;;;;2.80;1.87;;;11.70;99.90;;;;;;5093604;28;20289;-80
2020/12/19 11:35:58;;;;;;;3.03;1.87;;;11.70;99.90;;;;;;5094493;28;20194;-81
2020/12/19 11:38:25;;;;;;;4.40;1.93;;;11.60;99.90;;;;;;5093897;28;20210;-81
2020/12/19 11:40:52;;;;;;;2.77;1.90;;;11.70;99.90;;;;;;5085750;28;20285;-80
2020/12/19 11:43:19;;;;;;;8.07;2.10;;;11.70;99.90;;;;;;5086733;28;20704;-80
2020/12/19 11:45:45;;;;;;;4.77;1.97;;;11.50;99.90;;;;;;5083049;28;20206;-79
2020/12/19 11:48:12;;;;;;;4.07;2.03;;;11.50;99.90;;;;;;5081139;28;20535;-79
2020/12/19 11:50:38;;;;;;;4.07;2.10;;;11.50;99.90;;;;;;5080258;28;20294;-80
2020/12/19 11:53:05;;;;;;;2.83;2.00;;;11.50;99.90;;;;;;5076017;28;20663;-78
2020/12/19 11:55:32;;;;;;;3.30;1.83;;;11.40;99.90;;;;;;5094557;28;20201;-80
2020/12/19 11:57:58;;;;;;;2.53;1.70;;;11.30;99.90;;;;;;5090190;28;20197;-80
2020/12/19 12:00:24;;;;;;;2.77;1.90;;;11.30;99.90;;;;;;5083329;28;20201;-80
2020/12/19 12:02:51;;;;;;;3.67;1.93;;;11.20;99.90;;;;;;5078204;28;20217;-81
2020/12/19 12:05:18;;;;;;;2.23;2.00;;;11.30;99.90;;;;;;5083615;28;20280;-81
2020/12/19 12:07:44;;;;;;;2.67;1.70;;;11.30;99.90;;;;;;5080564;28;20221;-82
2020/12/19 12:10:10;;;;;;;4.30;1.73;;;11.30;99.90;;;;;;5074469;28;20292;-82
2020/12/19 12:12:37;;;;;;;3.07;1.70;;;11.30;99.90;;;;;;5092163;28;20284;-80
2020/12/19 12:15:04;;;;;;;3.10;1.90;;;11.30;99.90;;;;;;5094604;28;20205;-81
2020/12/19 12:17:30;;;;;;;3.00;1.90;;;11.20;99.90;;;;;;5094494;28;20217;-82
2020/12/19 12:19:59;;;;;;;3.07;1.77;;;11.30;99.90;;;;;;5094057;28;20296;-81
2020/12/19 12:22:26;;;;;;;4.13;1.87;;;11.20;99.90;;;;;;5093814;28;20258;-78
2020/12/19 12:24:52;;;;;;;4.93;1.90;;;11.10;99.90;;;;;;5086056;28;20205;-80
2020/12/19 12:27:19;;;;;;;3.23;1.70;;;11.20;99.90;;;;;;5074178;28;20301;-81
2020/12/19 12:29:46;;;;;;;3.13;1.83;;;11.20;99.90;;;;;;5072720;28;20237;-81
2020/12/19 12:32:12;;;;;;;2.93;1.80;;;11.30;99.90;;;;;;5080919;28;20296;-79
2020/12/19 12:34:39;;;;;;;3.53;2.17;;;11.40;99.90;;;;;;5073608;28;20792;-79
2020/12/19 12:37:05;;;;;;;2.43;2.00;;;11.40;99.90;;;;;;5075356;28;20216;-79
2020/12/19 12:39:32;;;;;;;4.27;2.10;;;11.40;99.90;;;;;;5073463;28;20202;-81
2020/12/19 12:41:58;;;;;;;2.47;1.60;;;11.50;99.90;;;;;;5090493;28;20292;-83
2020/12/19 12:44:24;;;;;;;2.83;1.67;;;11.50;99.90;;;;;;5075505;28;20657;-80
2020/12/19 12:46:52;;;;;;;3.60;1.90;;;11.40;99.90;;;;;;5073645;28;20202;-79
2020/12/19 12:49:19;;;;;;;3.67;1.97;;;11.40;99.90;;;;;;5073330;28;20197;-80
2020/12/19 12:51:45;;;;;;;3.80;1.60;;;11.40;99.90;;;;;;5073377;28;20712;-81
2020/12/19 12:54:11;;;;;;;4.10;2.00;;;11.40;99.90;;;;;;5084813;28;20215;-80